Airport View

Enter AWOS ICAO identifier for current METAR.

ex. KFNL

KHEI 191853Z AUTO 09008KT 10SM BKN010 OVC015 16/13 A2976 RMK AO2 CIG 007V012 SLP073 T01560133

19 Jun 2019 19:29

Frequency: 119.925

Phone: 701-567-4594

Other Area AWOS: KBWW - K2WX - KDIK - KD57

TAF KDIK 191739Z 1918/2018 12015KT P6SM VCSH SCT010 BKN015 TEMPO 1918/1920 OVC007 FM200200 13009KT P6SM VCSH OVC007 FM200700 21005KT 6SM -SHRA BR SCT007 OVC026 FM201200 28010KT P6SM FEW045 SCT200